• Join FlightAware (Why Join?)
  • Login
  • US Flag 
12:23PM EDT


 

Airport Tracker/Info


-or-


 

Live Flight TrackerFlight Track Log ✈ ACA831 ✈ 22-Jun-2013 ✈ LSGG / GVA - CYUL

Flight Track Log - Related Links

Times and Time Zones

All times are in EDT time to prevent confusion due to time zone crossing. See the ACA831 flight status page for this flight to view local times or setup timezone preferences in your user account.

Time Position Orientation Groundspeed Altitude Reporting Facility
EDT Latitude Longitude Course Direction KTS MPH feet Rate Location/Type
06:13AM 46.2330 6.1050 216° Southwest 7 8  Level FlightAware
06:14AM 46.2330 6.1060 90° East 4 5 180 Level FlightAware
06:15AM 46.2320 6.1080 126° Southeast 10 12 240 Level FlightAware
06:15AM 46.2330 6.1080 360° North 13 15 240 Level FlightAware
06:15AM 46.2340 6.1090 35° Northeast 14 16 240 Level FlightAware
06:16AM 46.2350 6.1100 35° Northeast 12 14 240 Level FlightAware
06:16AM 46.2360 6.1120 54° Northeast 9 10 240 Level FlightAware
06:16AM 46.2370 6.1110 325° Northwest 8 9 300 Level FlightAware
06:17AM 46.2380 6.1120 35° Northeast 12 14 300 Level FlightAware
06:18AM 46.2400 6.1150 46° Northeast 18 21 360 Level FlightAware
06:19AM 46.2430 6.1190 43° Northeast 21 24 360 Level FlightAware
06:19AM 46.2440 6.1210 54° Northeast 19 22 420 Level FlightAware
06:19AM 46.2460 6.1240 46° Northeast 18 21 480 Level FlightAware
06:20AM 46.2470 6.1250 35° Northeast 21 24 540 Level FlightAware
06:21AM 46.2480 6.1270 54° Northeast 14 16 540 Level FlightAware
06:21AM 46.2500 6.1270 360° North 7 8 720 Level FlightAware
06:23AM 46.2490 6.1250 234° Southwest 45 52 780 Level FlightAware
06:24AM 46.2370 6.1070 226° Southwest 2,580 Level FlightAware
06:24AM 46.2240 6.0880 225° Southwest 161 185 2,500 3,840 Climbing FlightAware
06:24AM 46.2060 6.0630 224° Southwest 182 209 3,600 1,740 Climbing FlightAware
06:25AM 46.1880 6.0370 225° Southwest 184 212 4,800 2,340 Climbing FlightAware
06:26AM 46.1570 5.9910 226° Southwest 189 217 6,700 2,760 Climbing FlightAware
06:26AM 46.1440 5.9660 233° Southwest 202 232 7,300 1,200 Climbing FlightAware
06:27AM 46.1630 5.9190 300° West 258 297 8,100 1,320 Climbing FlightAware
06:27AM 46.1770 5.9140 346° North 263 303 8,500 1,860 Climbing FlightAware
06:27AM 46.2020 5.9210 11° North 283 326 9,100 2,040 Climbing FlightAware
06:28AM 46.2830 5.9040 352° North 330 380 11,100 1,860 Climbing FlightAware
06:29AM 46.3360 5.8500 325° Northwest 373 429 12,100 1,920 Climbing FlightAware
06:30AM 46.3940 5.7900 325° Northwest 394 453 13,700 2,400 Climbing FlightAware
06:30AM 46.4560 5.7280 325° Northwest 405 466 15,500 2,580 Climbing FlightAware
06:31AM 46.5240 5.6580 325° Northwest 415 478 17,400 2,700 Climbing FlightAware
06:32AM 46.5900 5.5900 325° Northwest 418 481 19,300 2,400 Climbing FlightAware
06:33AM 46.6670 5.5110 325° Northwest 420 483 21,200 2,100 Climbing FlightAware
06:33AM 46.7420 5.4330 325° Northwest 434 499 22,800 2,280 Climbing FlightAware
06:34AM 46.8020 5.3710 325° Northwest 430 495 24,500 2,400 Climbing FlightAware
06:35AM 46.8800 5.2900 325° Northwest 433 498 26,200 2,220 Climbing FlightAware
06:36AM 46.9600 5.1960 321° Northwest 430 495 28,100 2,040 Climbing FlightAware
06:36AM 47.0280 5.1060 318° Northwest 434 499 29,500 1,620 Climbing FlightAware
06:37AM 47.0770 5.0410 318° Northwest 428 493 30,500 1,620 Climbing FlightAware
06:38AM 47.1470 4.9480 318° Northwest 427 491 31,800 1,080 Climbing FlightAware
06:39AM 47.2090 4.8640 317° Northwest 423 487 32,100 180 Climbing FlightAware
06:39AM 47.2700 4.7820 318° Northwest 419 482 32,100  Level FlightAware
06:41AM 47.3890 4.6360 320° Northwest 421 484 32,100  Level FlightAware
06:41AM 47.4720 4.5460 324° Northwest 423 487 32,100  Level FlightAware
06:42AM 47.5410 4.4730 324° Northwest 424 488 32,100  Level FlightAware
06:43AM 47.6010 4.4080 324° Northwest 424 488 32,100  Level FlightAware
06:43AM 47.6660 4.3380 324° Northwest 424 488 32,100  Level FlightAware
06:44AM 47.7410 4.2560 324° Northwest 423 487 32,100  Level FlightAware
06:45AM 47.8320 4.1560 324° Northwest 423 487 32,100  Level FlightAware
06:46AM 47.8930 4.0880 323° Northwest 423 487 32,100  Level FlightAware
06:47AM 47.9790 3.9940 324° Northwest 423 487 32,100  Level FlightAware
06:47AM 48.0480 3.9170 323° Northwest 423 487 32,100  Level FlightAware
06:48AM 48.1110 3.8470 323° Northwest 423 487 32,100  Level FlightAware
06:49AM 48.1700 3.7810 323° Northwest 425 489 32,100  Level FlightAware
06:50AM 48.2410 3.7020 323° Northwest 425 489 32,100  Level FlightAware
06:51AM 48.3550 3.5740 323° Northwest 426 490 32,100  Level FlightAware
06:51AM 48.4120 3.5080 322° Northwest 426 490 32,100  Level FlightAware
06:52AM 48.5130 3.3940 323° Northwest 427 491 32,100  Level FlightAware
06:53AM 48.5750 3.3230 323° Northwest 426 490 32,100  Level FlightAware
06:54AM 48.6370 3.2530 323° Northwest 427 491 32,100  Level FlightAware
06:54AM 48.7070 3.1730 323° Northwest 427 491 32,100  Level FlightAware
06:55AM 48.7700 3.1000 323° Northwest 428 493 32,100  Level FlightAware
06:56AM 48.8440 3.0190 324° Northwest 429 494 32,100  Level FlightAware
06:57AM 48.9130 2.9700 335° Northwest 432 497 32,100  Level FlightAware
06:57AM 48.9980 2.9180 338° Northwest 432 497 32,100  Level FlightAware
06:58AM 49.0730 2.8710 338° Northwest 432 497 32,100  Level FlightAware
06:59AM 49.1500 2.8220 337° Northwest 433 498 32,100  Level FlightAware
06:59AM 49.2300 2.7710 337° Northwest 433 498 32,100 -120 Level FlightAware
07:00AM 49.2894 2.7306 337° Northwest 1 1 32,000  Descending FlightAware UK
07:00AM 49.3010 2.7260 337° Northwest 434 499 32,100  Climbing FlightAware
07:01AM 49.3683 2.6880 337° Northwest 1 1 32,000  Descending FlightAware UK
07:01AM 49.3840 2.6730 337° Northwest 435 501 32,100  Climbing FlightAware
07:01AM 49.4452 2.6324 337° Northwest 476 548 32,000  Descending FlightAware UK
07:01AM 49.4560 2.6270 337° Northwest 436 502 32,100 60 Climbing FlightAware
07:02AM 49.5400 2.5720 337° Northwest 438 504 32,100  Level FlightAware
07:03AM 49.6150 2.5240 337° Northwest 439 505 32,100  Level FlightAware
07:04AM 49.6980 2.4710 338° Northwest 439 505 32,100  Level FlightAware
07:04AM 49.7680 2.4250 337° Northwest 439 505 32,100 -120 Level FlightAware
07:05AM 49.8488 2.3728 337° Northwest 476 548 32,000  Descending FlightAware UK
07:05AM 49.8790 2.3520 337° Northwest 440 506 32,100 60 Climbing FlightAware
07:06AM 49.9610 2.2990 337° Northwest 440 506 32,100  Level FlightAware
07:07AM 50.0300 2.2530 337° Northwest 440 506 32,100 -180 Level FlightAware
07:07AM 50.0399 2.2475 337° Northwest 476 548 32,000 -180 Descending FlightAware UK
07:07AM 50.0961 2.2104 337° Northwest 476 548 32,000 120 Level FlightAware UK
07:07AM 50.1130 2.1980 337° Northwest 442 509 32,100 120 Climbing FlightAware
07:08AM 50.1800 2.1540 337° Northwest 442 509 32,100 -120 Level FlightAware
07:09AM 50.2780 2.0889 337° Northwest 478 550 32,000  Descending FlightAware UK
07:09AM 50.2800 2.0880 337° Northwest 442 509 32,100 120 Climbing FlightAware
07:09AM 50.3570 2.0330 336° Northwest 439 505 32,100 -120 Level FlightAware
07:10AM 50.4153 1.9697 336° Northwest 474 545 32,000  Descending FlightAware UK
07:10AM 50.4260 1.9540 336° Northwest 426 490 32,100 60 Climbing FlightAware
07:11AM 50.5040 1.8470 319° Northwest 432 497 32,100  Level FlightAware
07:12AM 50.5650 1.7620 319° Northwest 432 497 32,100  Level FlightAware
07:12AM 50.6180 1.6660 311° West 420 483 32,100 -120 Level FlightAware
07:13AM 50.6499 1.5812 311° West 474 545 32,000  Descending FlightAware UK
07:13AM 50.6590 1.5470 311° West 417 480 32,100 60 Climbing FlightAware
07:14AM 50.6910 1.4470 297° West 418 481 32,100  Level FlightAware
07:15AM 50.7290 1.3260 297° West 419 482 32,100 -180 Level FlightAware
07:15AM 50.7321 1.3172 297° West 476 548 32,000  Descending FlightAware UK
07:15AM 50.7662 1.2093 297° West 424 488 32,100 60 Climbing FlightAware ADS-B
07:16AM 50.8030 1.0930 297° West 420 483 32,100  Level FlightAware
07:16AM 50.8298 1.0075 296° West 424 488 32,100  Level FlightAware ADS-B
07:17AM 50.8584 0.9154 296° West 425 489 32,100  Level FlightAware ADS-B
07:18AM 50.8885 0.8178 296° West 425 489 32,100  Level FlightAware ADS-B
07:18AM 50.9181 0.7216 296° West 426 490 32,100  Level FlightAware ADS-B
07:19AM 50.9443 0.6362 296° West 425 489 32,100  Level FlightAware ADS-B
07:19AM 50.9760 0.5328 296° West 427 491 32,100  Level FlightAware ADS-B
07:20AM 51.0046 0.4385 296° West 426 490 32,100  Level FlightAware ADS-B
07:20AM 51.0327 0.3461 296° West 425 489 32,100  Level FlightAware ADS-B
07:21AM 51.0603 0.2575 296° West 425 489 32,100  Level FlightAware ADS-B
07:21AM 51.0899 0.1638 297° West 426 490 32,100  Level FlightAware ADS-B
07:22AM 51.1182 0.0740 297° West 426 490 32,100  Level FlightAware ADS-B
07:22AM 51.1461 -0.0151 297° West 426 490 32,100  Level FlightAware ADS-B
07:23AM 51.1729 -0.0995 297° West 425 489 32,100  Level FlightAware ADS-B
07:24AM 51.2007 -0.1871 297° West 424 488 32,100  Level FlightAware ADS-B
07:24AM 51.2275 -0.2712 297° West 424 488 32,100  Level FlightAware ADS-B
07:25AM 51.2545 -0.3569 297° West 423 487 32,100  Level FlightAware ADS-B
07:25AM 51.2819 -0.4442 297° West 422 486 32,100  Level FlightAware ADS-B
07:25AM 51.2888 -0.4714 292° West 418 481 32,100  Level FlightAware ADS-B
07:26AM 51.3048 -0.5655 285° West 415 478 32,100  Level FlightAware ADS-B
07:26AM 51.3223 -0.6609 286° West 415 478 32,100  Level FlightAware ADS-B
07:27AM 51.3402 -0.7540 287° West 415 478 32,100  Level FlightAware ADS-B
07:27AM 51.3582 -0.8449 288° West 414 476 32,100  Level FlightAware ADS-B
07:28AM 51.3756 -0.9325 288° West 416 479 32,100  Level FlightAware ADS-B
07:28AM 51.3930 -1.0200 288° West 414 476 32,100  Level FlightAware ADS-B
07:29AM 51.4107 -1.1099 288° West 414 476 32,100  Level FlightAware ADS-B
07:29AM 51.4265 -1.1981 286° West 415 478 32,100  Level FlightAware ADS-B
07:30AM 51.4423 -1.2879 286° West 414 476 32,100  Level FlightAware ADS-B
07:30AM 51.4585 -1.3789 286° West 413 475 32,100  Level FlightAware ADS-B
07:31AM 51.4743 -1.4673 286° West 412 474 32,100  Level FlightAware ADS-B
07:31AM 51.4899 -1.5554 286° West 411 473 32,100  Level FlightAware ADS-B
07:32AM 51.5064 -1.6486 286° West 410 472 32,100  Level FlightAware ADS-B
07:32AM 51.5224 -1.7392 286° West 410 472 32,100  Level FlightAware ADS-B
07:33AM 51.5380 -1.8290 286° West 410 472 32,100  Level FlightAware ADS-B
07:33AM 51.5540 -1.9210 286° West 410 472 32,100  Level FlightAware ADS-B
07:34AM 51.5706 -2.0170 286° West 410 472 32,100  Level FlightAware ADS-B
07:35AM 51.5868 -2.1112 286° West 410 472 32,100  Level FlightAware ADS-B
07:35AM 51.6044 -2.2145 285° West 409 471 32,100  Level FlightAware ADS-B
07:36AM 51.6207 -2.3102 285° West 409 471 32,100  Level FlightAware ADS-B
07:36AM 51.6365 -2.4040 285° West 408 470 32,100  Level FlightAware ADS-B
07:37AM 51.6549 -2.5136 285° West 408 470 32,100  Level FlightAware ADS-B
07:37AM 51.6634 -2.5628 286° West 409 471 32,100  Level FlightAware ADS-B
07:38AM 51.6896 -2.6563 294° West 414 476 32,100  Level FlightAware ADS-B
07:38AM 51.7070 -2.6982 304° West 421 484 32,100  Level FlightAware ADS-B
07:39AM 51.7489 -2.7813 309° West 422 486 32,100  Level FlightAware ADS-B
07:39AM 51.8050 -2.8920 309° West 421 484 32,100  Level FlightAware
07:40AM 51.8560 -2.9930 309° West 421 484 32,100  Level FlightAware
07:41AM 51.8990 -3.0770 310° West 422 486 32,100  Level FlightAware
07:41AM 51.9610 -3.2000 309° West 425 489 32,100  Level FlightAware
07:42AM 52.0100 -3.2980 309° West 425 489 32,100 -120 Level FlightAware
07:43AM 52.0626 -3.4037 309° West 480 552 32,000  Descending FlightAware UK
07:43AM 52.0620 -3.4030 309° West 425 489 32,100 120 Climbing FlightAware
07:43AM 52.1070 -3.4930 309° West 426 490 32,100  Level FlightAware
07:44AM 52.1590 -3.5980 309° West 426 490 32,100  Level FlightAware
07:45AM 52.2080 -3.6980 309° West 424 488 32,100 900 Level FlightAware
07:46AM 52.2730 -3.8310 309° West 417 480 33,500 1,200 Climbing FlightAware
07:46AM 52.3265 -3.9392 309° West 480 552 34,000 300 Climbing FlightAware UK
07:47AM 52.3764 -4.0415 309° West 474 545 34,000  Level FlightAware UK
07:48AM 52.4187 -4.1296 308° West 472 543 34,000  Level FlightAware UK
07:49AM 52.4894 -4.2760 308° West 472 543 34,000  Level FlightAware UK
07:49AM 52.5249 -4.3495 308° West 474 545 34,000  Level FlightAware UK
07:50AM 52.5742 -4.4525 308° West 478 550 34,000  Level FlightAware UK
07:50AM 52.6165 -4.5414 308° West 476 548 34,000  Level FlightAware UK
07:51AM 52.6516 -4.6154 308° West 476 548 34,000  Level FlightAware UK
07:52AM 52.6936 -4.7041 308° West 476 548 34,000  Level FlightAware UK
07:52AM 52.7321 -4.7960 305° West 474 545 34,000  Level FlightAware UK
07:53AM 52.7586 -4.8769 299° West 476 548 34,000 120 Level FlightAware UK
07:53AM 52.7370 -4.8110 299° West 401 461 34,100 60 Climbing FlightAware
07:54AM 52.7380 -4.8140 299° West 400 460 34,100 -120 Level FlightAware
07:54AM 52.8086 -5.0605 299° West 476 548 34,000 -180 Descending FlightAware UK
07:54AM 52.8354 -5.1614 299° West 476 548 34,000 120 Level FlightAware UK
07:55AM 52.7510 -4.8540 299° West 399 459 34,100 120 Climbing FlightAware
07:55AM 52.7670 -4.9060 297° West 400 460 34,100  Level FlightAware
07:56AM 52.8060 -5.0510 294° West 401 461 34,100 -120 Level FlightAware
07:57AM 52.9360 -5.5494 294° West 480 552 34,000  Descending FlightAware UK
07:57AM 52.8450 -5.2010 294° West 400 460 34,100 120 Climbing FlightAware
07:57AM 52.9620 -5.6480 294° West 401 461 34,100  Level FlightAware
07:58AM 53.0010 -5.7940 294° West 401 461 34,100  Level FlightAware
07:59AM 53.0340 -5.9160 294° West 402 463 34,100  Level FlightAware
08:00AM 53.0660 -6.0360 294° West 406 467 34,100 -120 Level FlightAware
08:00AM 53.0810 -6.0930 293° West 406 467 34,000 -120 Descending FlightAware
08:00AM 53.1070 -6.1923 294° West 474 545 34,000  Level FlightAware UK
08:01AM 53.1343 -6.2966 294° West 474 545 34,000  Level FlightAware UK
08:02AM 53.1570 -6.3848 293° West 478 550 34,000  Level FlightAware UK
08:02AM 53.1836 -6.4915 293° West 480 552 34,000  Level FlightAware UK
08:03AM 53.2107 -6.5985 293° West 484 557 34,000  Level FlightAware UK
08:03AM 53.2334 -6.6881 293° West 484 557 34,000  Level FlightAware UK
08:04AM 53.2605 -6.7961 293° West 488 562 34,000  Level FlightAware UK
08:04AM 53.2838 -6.8860 293° West 486 559 34,000  Level FlightAware UK
08:05AM 53.3068 -6.9764 293° West 484 557 34,000  Level FlightAware UK
08:05AM 53.3297 -7.0667 293° West 490 564 34,000  Level FlightAware UK
08:06AM 53.3526 -7.1569 293° West 486 559 34,000  Level FlightAware UK
08:06AM 53.3752 -7.2470 293° West 482 555 34,000  Level FlightAware UK
08:07AM 53.4020 -7.3542 293° West 484 557 34,000  Level FlightAware UK
08:07AM 53.4245 -7.4436 293° West 482 555 34,000  Level FlightAware UK
08:08AM 53.4466 -7.5331 293° West 484 557 34,000  Level FlightAware UK
08:08AM 53.4688 -7.6228 293° West 484 557 34,000  Level FlightAware UK
08:09AM 53.4909 -7.7126 292° West 482 555 34,000  Level FlightAware UK
08:09AM 53.5129 -7.8022 292° West 484 557 34,000  Level FlightAware UK
08:10AM 53.5350 -7.8917 293° West 484 557 34,000  Level FlightAware UK
08:10AM 53.5568 -7.9813 292° West 482 555 34,000  Level FlightAware UK
08:11AM 53.5782 -8.0711 292° West 480 552 34,000  Level FlightAware UK
08:11AM 53.5998 -8.1607 292° West 476 548 34,000  Level FlightAware UK
08:12AM 53.6215 -8.2506 292° West 476 548 34,000  Level FlightAware UK
08:12AM 53.6432 -8.3412 292° West 480 552 34,000  Level FlightAware UK
08:13AM 53.6651 -8.4323 292° West 480 552 34,000  Level FlightAware UK
08:14AM 53.6910 -8.5421 292° West 482 555 34,000  Level FlightAware UK
08:14AM 53.7129 -8.6347 292° West 486 559 34,000 120 Level FlightAware UK
08:14AM 53.6970 -8.5690 292° West 421 484 34,100 60 Climbing FlightAware
08:15AM 53.7220 -8.6850 292° West 421 484 34,100 -180 Level FlightAware
08:15AM 53.7562 -8.8194 292° West 484 557 34,000 -240 Descending FlightAware UK
08:16AM 53.7778 -8.9117 292° West 482 555 34,000 120 Level FlightAware UK
08:16AM 53.7490 -8.8110 292° West 421 484 34,100 60 Climbing FlightAware
08:17AM 53.7210 -8.6680 108° East 426 490 34,100  Level FlightAware
08:17AM 53.7340 -8.7240 291° West 422 486 34,100  Level FlightAware
08:18AM 53.7660 -8.8620 291° West 422 486 34,100  Level FlightAware
08:19AM 53.8880 -9.3890 292° West 427 491 34,100  Level FlightAware
08:19AM 53.9440 -9.6390 291° West 424 488 34,100  Level FlightAware
08:20AM 53.9570 -9.6980 291° West 424 488 34,100  Level FlightAware
08:22AM 53.9890 -9.8420 285° West 425 489 34,100  Level FlightAware
08:23AM 54.0326 -10.1776 285° West  Level Estimated
08:23AM 54.0980 -10.3350 291° West 433 498 34,100  Level FlightAware
08:24AM 54.1250 -10.4590 290° West 438 504 34,100  Level FlightAware
08:25AM 54.1570 -10.6110 290° West 438 504 34,100  Level FlightAware
08:25AM 54.1880 -10.7560 290° West 441 507 34,100  Level FlightAware
08:26AM 54.2270 -10.9380 290° West 440 506 34,100  Level FlightAware
08:27AM 54.2540 -11.0680 290° West 443 510 34,100  Level FlightAware
08:28AM 54.2860 -11.2180 290° West 442 509 34,100  Level FlightAware
08:28AM 54.3130 -11.3480 290° West 442 509 34,100  Level FlightAware
08:29AM 54.3400 -11.4810 289° West 440 506 34,100  Level FlightAware
08:30AM 54.3700 -11.6260 290° West 439 505 34,100  Level FlightAware
08:30AM 54.3740 -11.6480 287° West 439 505 34,100  Level FlightAware
08:31AM 54.4270 -11.9100 289° West 435 501 34,100  Level FlightAware
08:32AM 54.4530 -12.0410 289° West 434 499 34,100 -300 Level FlightAware
08:33AM 54.4820 -12.1870 289° West 432 497 33,700 -720 Descending FlightAware
08:33AM 54.5070 -12.3090 289° West 430 495 33,100 -1,020 Descending FlightAware
08:34AM 54.5430 -12.4960 288° West 435 501 32,100 -660 Descending FlightAware
08:35AM 54.5700 -12.6340 289° West 434 499 32,100  Level FlightAware
08:36AM 54.5980 -12.7810 288° West 434 499 32,100  Level FlightAware
08:36AM 54.6190 -12.8900 288° West 433 498 32,100  Level FlightAware
08:37AM 54.6460 -13.0310 288° West 431 496 32,100  Level FlightAware
08:38AM 54.6730 -13.1730 288° West 431 496 32,100  Level FlightAware
08:38AM 54.6980 -13.3100 288° West 431 496 32,100  Level FlightAware
08:39AM 54.7170 -13.4110 288° West 431 496 32,100  Level FlightAware
08:40AM 54.7420 -13.5450 288° West 431 496 32,100  Level FlightAware
08:40AM 54.7640 -13.6620 288° West 431 496 32,100  Level FlightAware
08:41AM 54.7840 -13.7650 289° West 431 496 32,100  Level FlightAware
08:42AM 54.8080 -13.8940 288° West 431 496 32,100  Level FlightAware
08:42AM 54.8270 -13.9970 288° West 431 496 32,100  Level FlightAware
08:43AM 54.8530 -14.1350 288° West 431 496 32,100  Level FlightAware
08:44AM 54.8710 -14.2300 288° West 431 496 32,100  Level FlightAware
08:45AM 54.8970 -14.3700 288° West 431 496 32,100  Level FlightAware
08:45AM 54.9160 -14.4740 288° West 431 496 32,100 -60 Level FlightAware
08:48AM 54.9630 -14.9042 281° West  Level Estimated
08:49AM 54.9840 -15.1016 281° West  Level Estimated
08:50AM 55.0046 -15.2988 280° West  Level Estimated
08:51AM 55.0249 -15.4962 280° West  Level Estimated
08:52AM 55.0449 -15.6937 280° West  Level Estimated
08:53AM 55.0909 -15.8821 293° West  Level FlightAware Approximate
08:54AM 55.1366 -16.0709 293° West  Level FlightAware Approximate
08:55AM 55.1819 -16.2601 293° West  Level FlightAware Approximate
08:56AM 55.2270 -16.4498 293° West  Level FlightAware Approximate
08:57AM 55.2718 -16.6398 293° West  Level FlightAware Approximate
08:58AM 55.3163 -16.8304 292° West  Level FlightAware Approximate
08:59AM 55.3605 -17.0213 292° West  Level FlightAware Approximate
09:00AM 55.4044 -17.2127 292° West  Level FlightAware Approximate
09:01AM 55.4481 -17.4044 292° West  Level FlightAware Approximate
09:02AM 55.4914 -17.5966 292° West  Level FlightAware Approximate
09:03AM 55.5344 -17.7893 292° West  Level FlightAware Approximate
09:04AM 55.5771 -17.9823 291° West  Level FlightAware Approximate
09:05AM 55.6195 -18.1758 291° West  Level FlightAware Approximate
09:06AM 55.6615 -18.3697 291° West  Level FlightAware Approximate
09:07AM 55.7033 -18.5640 291° West  Level FlightAware Approximate
09:08AM 55.7448 -18.7587 291° West  Level FlightAware Approximate
09:09AM 55.7860 -18.9538 291° West  Level FlightAware Approximate
09:10AM 55.8268 -19.1494 290° West  Level FlightAware Approximate
09:11AM 55.8674 -19.3453 290° West  Level FlightAware Approximate
09:12AM 55.9076 -19.5417 290° West  Level FlightAware Approximate
09:12AM 56.0000 -20.0000 284° West 438 504 32,000  Level ETMS Enhanced Traffic Management System
09:13AM 55.9476 -19.7385 290° West  Level FlightAware Approximate
09:14AM 55.9872 -19.9356 290° West  Level FlightAware Approximate
09:15AM 56.0196 -20.1373 284° West  Level FlightAware Approximate
09:16AM 56.0484 -20.3407 284° West  Level FlightAware Approximate
09:17AM 56.0769 -20.5444 284° West  Level FlightAware Approximate
09:18AM 56.2034 -21.4849 283° West 438 504 32,000  Level FlightAware Transoceanic
09:19AM 56.2310 -21.6983 283° West 438 504 32,000  Level FlightAware Transoceanic
09:20AM 56.2583 -21.9120 283° West 438 504 32,000  Level FlightAware Transoceanic
09:21AM 56.2851 -22.1260 283° West 438 504 32,000  Level FlightAware Transoceanic
09:22AM 56.3116 -22.3403 282° West 438 504 32,000  Level FlightAware Transoceanic
09:23AM 56.3378 -22.5549 282° West 438 504 32,000  Level FlightAware Transoceanic
09:24AM 56.3635 -22.7698 282° West 438 504 32,000  Level FlightAware Transoceanic
09:25AM 56.3889 -22.9849 282° West 438 504 32,000  Level FlightAware Transoceanic
09:26AM 56.4139 -23.2004 282° West 438 504 32,000  Level FlightAware Transoceanic
09:27AM 56.4385 -23.4161 282° West 438 504 32,000  Level FlightAware Transoceanic
09:28AM 56.4628 -23.6322 281° West 438 504 32,000  Level FlightAware Transoceanic
09:29AM 56.4867 -23.8485 281° West 438 504 32,000  Level FlightAware Transoceanic
09:30AM 56.5102 -24.0650 281° West 438 504 32,000  Level FlightAware Transoceanic
09:31AM 56.5333 -24.2819 281° West 438 504 32,000  Level FlightAware Transoceanic
09:32AM 56.5561 -24.4989 281° West 438 504 32,000  Level FlightAware Transoceanic
09:33AM 56.5784 -24.7163 280° West 438 504 32,000  Level FlightAware Transoceanic
09:34AM 56.6004 -24.9339 280° West 438 504 32,000  Level FlightAware Transoceanic
09:35AM 56.6221 -25.1518 280° West 438 504 32,000  Level FlightAware Transoceanic
09:36AM 56.6433 -25.3699 280° West 438 504 32,000  Level FlightAware Transoceanic
09:37AM 56.6642 -25.5882 280° West 438 504 32,000  Level FlightAware Transoceanic
09:38AM 56.6846 -25.8068 280° West 438 504 32,000  Level FlightAware Transoceanic
09:39AM 56.7047 -26.0256 279° West 438 504 32,000  Level FlightAware Transoceanic
09:40AM 56.7244 -26.2447 279° West 438 504 32,000  Level FlightAware Transoceanic
09:41AM 56.7437 -26.4640 279° West 438 504 32,000  Level FlightAware Transoceanic
09:42AM 56.7627 -26.6835 279° West 438 504 32,000  Level FlightAware Transoceanic
09:43AM 56.7812 -26.9032 279° West 438 504 32,000  Level FlightAware Transoceanic
09:44AM 56.7994 -27.1231 278° West 438 504 32,000  Level FlightAware Transoceanic
09:45AM 56.8171 -27.3433 278° West 438 504 32,000  Level FlightAware Transoceanic
09:46AM 56.8345 -27.5637 278° West 438 504 32,000  Level FlightAware Transoceanic
09:47AM 56.8515 -27.7842 278° West 438 504 32,000  Level FlightAware Transoceanic
09:48AM 56.8681 -28.0050 278° West 438 504 32,000  Level FlightAware Transoceanic
09:49AM 56.8843 -28.2259 278° West 438 504 32,000  Level FlightAware Transoceanic
09:50AM 56.9002 -28.4471 277° West 438 504 32,000  Level FlightAware Transoceanic
09:51AM 56.9156 -28.6684 277° West 438 504 32,000  Level FlightAware Transoceanic
09:52AM 56.9307 -28.8899 277° West 438 504 32,000  Level FlightAware Transoceanic
09:53AM 56.9453 -29.1116 277° West 438 504 32,000  Level FlightAware Transoceanic
09:54AM 56.9596 -29.3334 277° West 438 504 32,000  Level FlightAware Transoceanic
09:55AM 56.9734 -29.5555 276° West 438 504 32,000  Level FlightAware Transoceanic
09:56AM 56.9869 -29.7777 276° West 438 504 32,000  Level FlightAware Transoceanic
09:57AM 56.9995 -29.9916 276° West  Level FlightAware Approximate
09:58AM 57.0116 -30.2058 276° West  Level FlightAware Approximate
09:59AM 56.9880 -30.1972 264° West  Level FlightAware Approximate
10:00AM 56.9747 -30.4110 264° West  Level FlightAware Approximate
10:00AM 57.0000 -30.0000 264° West 429 494 32,000  Level ETMS Enhanced Traffic Management System
10:01AM 56.9610 -30.6246 263° West  Level FlightAware Approximate
10:02AM 56.9469 -30.8380 263° West  Level FlightAware Approximate
10:03AM 56.9326 -31.0502 263° West  Level FlightAware Approximate
10:04AM 56.9179 -31.2623 263° West  Level FlightAware Approximate
10:05AM 56.9028 -31.4742 263° West  Level FlightAware Approximate
10:06AM 56.8871 -31.7365 262° West 429 494 32,000  Level FlightAware Transoceanic
10:07AM 56.8713 -31.9527 262° West 429 494 32,000  Level FlightAware Transoceanic
10:08AM 56.8551 -32.1688 262° West 429 494 32,000  Level FlightAware Transoceanic
10:09AM 56.8385 -32.3847 262° West 429 494 32,000  Level FlightAware Transoceanic
10:10AM 56.8216 -32.6005 262° West 429 494 32,000  Level FlightAware Transoceanic
10:11AM 56.8043 -32.8160 262° West 429 494 32,000  Level FlightAware Transoceanic
10:12AM 56.7867 -33.0313 261° West 429 494 32,000  Level FlightAware Transoceanic
10:13AM 56.7686 -33.2464 261° West 429 494 32,000  Level FlightAware Transoceanic
10:14AM 56.7502 -33.4613 261° West 429 494 32,000  Level FlightAware Transoceanic
10:15AM 56.7314 -33.6760 261° West 429 494 32,000  Level FlightAware Transoceanic
10:16AM 56.7123 -33.8905 261° West 429 494 32,000  Level FlightAware Transoceanic
10:17AM 56.6928 -34.1048 260° West 429 494 32,000  Level FlightAware Transoceanic
10:18AM 56.6729 -34.3188 260° West 429 494 32,000  Level FlightAware Transoceanic
10:19AM 56.6527 -34.5326 260° West 429 494 32,000  Level FlightAware Transoceanic
10:20AM 56.6320 -34.7462 260° West 429 494 32,000  Level FlightAware Transoceanic
10:21AM 56.6111 -34.9595 260° West 429 494 32,000  Level FlightAware Transoceanic
10:22AM 56.5897 -35.1726 260° West 429 494 32,000  Level FlightAware Transoceanic
10:23AM 56.5680 -35.3855 259° West 429 494 32,000  Level FlightAware Transoceanic
10:24AM 56.5460 -35.5981 259° West 429 494 32,000  Level FlightAware Transoceanic
10:25AM 56.5235 -35.8104 259° West 429 494 32,000  Level FlightAware Transoceanic
10:26AM 56.5007 -36.0225 259° West 429 494 32,000  Level FlightAware Transoceanic
10:27AM 56.4776 -36.2344 259° West 429 494 32,000  Level FlightAware Transoceanic
10:28AM 56.4541 -36.4460 259° West 429 494 32,000  Level FlightAware Transoceanic
10:29AM 56.4302 -36.6573 258° West 429 494 32,000  Level FlightAware Transoceanic
10:30AM 56.4060 -36.8684 258° West 429 494 32,000  Level FlightAware Transoceanic
10:31AM 56.3814 -37.0792 258° West 429 494 32,000  Level FlightAware Transoceanic
10:32AM 56.3564 -37.2897 258° West 429 494 32,000  Level FlightAware Transoceanic
10:33AM 56.3311 -37.4999 258° West 429 494 32,000  Level FlightAware Transoceanic
10:34AM 56.3055 -37.7099 257° West 429 494 32,000  Level FlightAware Transoceanic
10:35AM 56.2794 -37.9196 257° West 429 494 32,000  Level FlightAware Transoceanic
10:36AM 56.2531 -38.1289 257° West 429 494 32,000  Level FlightAware Transoceanic
10:37AM 56.2264 -38.3380 257° West 429 494 32,000  Level FlightAware Transoceanic
10:38AM 56.1993 -38.5468 257° West 429 494 32,000  Level FlightAware Transoceanic
10:39AM 56.1719 -38.7553 257° West 429 494 32,000  Level FlightAware Transoceanic
10:40AM 56.1441 -38.9636 256° West 429 494 32,000  Level FlightAware Transoceanic
10:41AM 56.1160 -39.1715 256° West 429 494 32,000  Level FlightAware Transoceanic
10:42AM 56.0875 -39.3791 256° West 429 494 32,000  Level FlightAware Transoceanic
10:43AM 56.0587 -39.5864 256° West 429 494 32,000  Level FlightAware Transoceanic
10:44AM 56.0295 -39.7933 256° West 429 494 32,000  Level FlightAware Transoceanic
10:45AM 56.0006 -39.9955 256° West  Level FlightAware Approximate
10:46AM 55.9715 -40.1975 256° West  Level FlightAware Approximate
10:47AM 55.9708 -40.1924 255° West  Level FlightAware Approximate
10:48AM 55.9400 -40.3934 255° West  Level FlightAware Approximate
10:49AM 55.9089 -40.5940 255° West  Level FlightAware Approximate
10:50AM 55.8774 -40.7944 254° West  Level FlightAware Approximate
10:51AM 55.8456 -40.9944 254° West  Level FlightAware Approximate
10:52AM 55.8135 -41.1940 254° West  Level FlightAware Approximate
10:53AM 55.7810 -41.3934 254° West  Level FlightAware Approximate
10:54AM 55.7483 -41.5924 254° West  Level FlightAware Approximate
10:55AM 55.7152 -41.7911 254° West  Level FlightAware Approximate
10:56AM 55.6818 -41.9894 253° West  Level FlightAware Approximate
10:57AM 55.6480 -42.1874 253° West  Level FlightAware Approximate
10:57AM 56.0000 -40.0000 255° West 420 483 32,000  Level ETMS Enhanced Traffic Management System
10:58AM 55.6140 -42.3851 253° West  Level FlightAware Approximate
10:59AM 55.5796 -42.5824 253° West  Level FlightAware Approximate
11:00AM 55.5449 -42.7793 253° West  Level FlightAware Approximate
11:01AM 55.5099 -42.9759 253° West  Level FlightAware Approximate
11:02AM 55.4746 -43.1722 252° West  Level FlightAware Approximate
11:03AM 55.4373 -43.3777 252° West 420 483 32,000  Level FlightAware Transoceanic
11:04AM 55.4013 -43.5732 252° West 420 483 32,000  Level FlightAware Transoceanic
11:05AM 55.3650 -43.7685 252° West 420 483 32,000  Level FlightAware Transoceanic
11:06AM 55.3285 -43.9633 252° West 420 483 32,000  Level FlightAware Transoceanic
11:07AM 55.2916 -44.1579 251° West 420 483 32,000  Level FlightAware Transoceanic
11:08AM 55.2544 -44.3520 251° West 420 483 32,000  Level FlightAware Transoceanic
11:09AM 55.2169 -44.5458 251° West 420 483 32,000  Level FlightAware Transoceanic
11:10AM 55.1791 -44.7392 251° West 420 483 32,000  Level FlightAware Transoceanic
11:11AM 55.1409 -44.9323 251° West 420 483 32,000  Level FlightAware Transoceanic
11:12AM 55.1025 -45.1250 251° West 420 483 32,000  Level FlightAware Transoceanic
11:13AM 55.0638 -45.3173 251° West 420 483 32,000  Level FlightAware Transoceanic
11:14AM 55.0247 -45.5092 250° West 420 483 32,000  Level FlightAware Transoceanic
11:15AM 54.9854 -45.7008 250° West 420 483 32,000  Level FlightAware Transoceanic
11:16AM 54.9458 -45.8919 250° West 420 483 32,000  Level FlightAware Transoceanic
11:17AM 54.9058 -46.0828 250° West 420 483 32,000  Level FlightAware Transoceanic
11:18AM 54.8656 -46.2732 250° West 420 483 32,000  Level FlightAware Transoceanic
11:19AM 54.8251 -46.4632 250° West 420 483 32,000  Level FlightAware Transoceanic
11:20AM 54.7843 -46.6529 249° West 420 483 32,000  Level FlightAware Transoceanic
11:21AM 54.7431 -46.8422 249° West 420 483 32,000  Level FlightAware Transoceanic
11:22AM 54.7017 -47.0311 249° West 420 483 32,000  Level FlightAware Transoceanic
11:23AM 54.6600 -47.2196 249° West 420 483 32,000  Level FlightAware Transoceanic
11:24AM 54.6180 -47.4077 249° West 420 483 32,000  Level FlightAware Transoceanic
11:25AM 54.5757 -47.5954 249° West 420 483 32,000  Level FlightAware Transoceanic
11:26AM 54.5332 -47.7828 249° West 420 483 32,000  Level FlightAware Transoceanic
11:27AM 54.4903 -47.9697 248° West 420 483 32,000  Level FlightAware Transoceanic
11:28AM 54.4472 -48.1563 248° West 420 483 32,000  Level FlightAware Transoceanic
11:29AM 54.4037 -48.3424 248° West 420 483 32,000  Level FlightAware Transoceanic
11:30AM 54.3600 -48.5282 248° West 420 483 32,000  Level FlightAware Transoceanic
11:31AM 54.3160 -48.7136 248° West 420 483 32,000  Level FlightAware Transoceanic
11:32AM 54.2717 -48.8986 248° West 420 483 32,000  Level FlightAware Transoceanic
11:33AM 54.2271 -49.0831 247° West 420 483 32,000  Level FlightAware Transoceanic
11:34AM 54.1822 -49.2673 247° West 420 483 32,000  Level FlightAware Transoceanic
11:35AM 54.1371 -49.4511 247° West 420 483 32,000  Level FlightAware Transoceanic
11:36AM 54.0917 -49.6345 247° West 420 483 32,000  Level FlightAware Transoceanic
11:37AM 54.0460 -49.8174 247° West 420 483 32,000  Level FlightAware Transoceanic
11:38AM 54.0000 -50.0000 247° West  Level FlightAware Approximate
11:39AM 53.9623 -50.1877 251° West  Level FlightAware Approximate
11:40AM 53.9577 -50.1847 249° West  Level FlightAware Approximate
11:41AM 53.9150 -50.3692 249° West  Level FlightAware Approximate
11:42AM 53.8721 -50.5533 248° West  Level FlightAware Approximate
11:42AM 54.0000 -50.0000 251° West 424 488 32,000  Level ETMS Enhanced Traffic Management System
11:43AM 53.8289 -50.7370 248° West  Level FlightAware Approximate
11:44AM 53.7854 -50.9203 248° West  Level FlightAware Approximate
11:45AM 53.7417 -51.1033 248° West  Level FlightAware Approximate
11:46AM 53.6977 -51.2858 248° West  Level FlightAware Approximate
11:47AM 53.6534 -51.4680 248° West  Level FlightAware Approximate
11:48AM 53.5080 -52.2404 249° West 424 488 32,000  Level FlightAware Transoceanic
11:49AM 53.4651 -52.4248 249° West 424 488 32,000  Level FlightAware Transoceanic
11:50AM 53.4220 -52.6087 248° West 424 488 32,000  Level FlightAware Transoceanic
11:51AM 53.3785 -52.7923 248° West 424 488 32,000  Level FlightAware Transoceanic
11:52AM 53.3348 -52.9754 248° West 424 488 32,000  Level FlightAware Transoceanic
11:53AM 53.2908 -53.1583 248° West 424 488 32,000  Level FlightAware Transoceanic
11:54AM 53.2465 -53.3407 248° West 424 488 32,000  Level FlightAware Transoceanic
11:55AM 53.2020 -53.5228 248° West 424 488 32,000  Level FlightAware Transoceanic
11:56AM 53.1572 -53.7044 248° West 424 488 32,000  Level FlightAware Transoceanic
11:57AM 53.1120 -53.8857 247° West 424 488 32,000  Level FlightAware Transoceanic
11:58AM 53.0003 -53.9415 197° South  Level FlightAware Approximate
11:59AM 52.9973 -54.0097 245° Southwest  Level FlightAware Approximate
12:00PM 52.9481 -54.1854 245° Southwest  Level FlightAware Approximate
12:00PM 52.9833 -54.2833 245° Southwest 450 518 32,100  Level Gander Center
12:01PM 52.8997 -54.3568 245° Southwest  Level FlightAware Approximate
12:01PM 52.9500 -54.4500 252° West 410 472 32,100  Level Gander Center
12:02PM 52.8511 -54.5277 245° Southwest  Level FlightAware Approximate
12:02PM 52.9000 -54.6167 244° Southwest 430 495 32,100  Level Gander Center
12:03PM 52.8023 -54.6984 245° Southwest  Level FlightAware Approximate
12:03PM 52.8500 -54.8000 246° West 420 483 32,100  Level Gander Center
12:04PM 52.7532 -54.8686 245° Southwest  Level FlightAware Approximate
12:04PM 52.8167 -54.9500 250° West 410 472 32,100  Level Gander Center
12:04PM 52.7667 -55.1000 241° Southwest 390 449 32,100  Level Moncton Center
12:05PM 52.7500 -55.2333 258° West 410 472 32,100 420 Level Moncton Center
12:06PM 52.6833 -55.4167 239° Southwest 410 472 33,000 1,320 Climbing Moncton Center
12:07PM 52.6667 -55.5167 255° West 400 460 34,300 1,500 Climbing Gander Center
12:08PM 52.6333 -55.6667 250° West 400 460 35,100 540 Climbing Gander Center
12:08PM 52.6000 -55.7667 241° Southwest 410 472 35,100  Level Moncton Center
12:09PM 52.5667 -55.8667 241° Southwest 420 483 35,100  Level Gander Center
12:10PM 52.5333 -56.0500 253° West 410 472 35,100 -60 Level Gander Center
12:11PM 52.5000 -56.1667 245° Southwest 400 460 35,000 -60 Descending Gander Center
12:12PM 52.4500 -56.3333 244° Southwest 390 449 35,000  Level Gander Center
12:13PM 52.4167 -56.4833 250° West 390 449 35,000  Level Gander Center
12:13PM 52.3667 -56.6000 235° Southwest 390 449 35,000 60 Level Moncton Center
12:14PM 52.3333 -56.7500 250° West 390 449 35,100  Climbing Moncton Center
12:15PM 52.2833 -56.9167 244° Southwest 390 449 35,000  Descending Moncton Center
12:16PM 52.2667 -57.0167 255° West 390 449 35,100 60 Climbing Gander Center
12:17PM 52.2333 -57.1500 248° West 390 449 35,100  Level Gander Center
12:18PM 52.1833 -57.3333 246° West 390 449 35,100  Level Gander Center
12:18PM 52.1500 -57.4167 237° Southwest 390 449 35,100 -120 Level Moncton Center
12:19PM 52.1333 -57.5167 255° West 390 449 35,000  Descending Gander Center
12:20PM 52.1000 -57.6333 245° Southwest 390 449 35,100  Climbing Gander Center
12:21PM 52.0333 -57.8000 237° Southwest 390 449 35,000  Descending Gander Center
12:22PM 52.0167 -57.9333 259° West 390 449 35,100  Climbing Gander Center
12:23PM 51.9500 -58.1000 237° Southwest 390 449 35,100 -60 Level Gander Center
12:24PM 51.9000 -58.2667 244° Southwest 390 449 35,000 -60 Descending Gander Center
12:25PM 51.8500 -58.4333 244° Southwest 400 460 35,000  Level Gander Center
12:26PM 51.8167 -58.6000 252° West 390 449 35,000  Level Gander Center
12:26PM 51.7833 -58.6833 237° Southwest 390 449 35,000 60 Level Moncton Center
12:27PM 51.7333 -58.8500 244° Southwest 390 449 35,100  Climbing Moncton Center
12:28PM 51.7000 -59.0000 250° West 400 460 35,100  Level Moncton Center
12:29PM 51.6500 -59.1000 231° Southwest 390 449 35,100  Level Gander Center
12:30PM 51.6167 -59.2333 248° West 390 449 35,100  Level Gander Center
12:31PM 51.5833 -59.4000 252° West 390 449 35,100  Level Gander Center
12:31PM 51.5500 -59.5000 242° Southwest 390 449 35,100  Level Moncton Center
12:32PM 51.5000 -59.6333 239° Southwest 390 449 35,100 -60 Level Moncton Center
12:33PM 51.4500 -59.8000 244° Southwest 390 449 35,000  Descending Moncton Center
12:34PM 51.4000 -59.9667 244° Southwest 390 449 35,100  Climbing Moncton Center
12:35PM 51.3500 -60.1000 239° Southwest 390 449 35,000  Descending Moncton Center
12:36PM 51.3000 -60.2667 244° Southwest 390 449 35,100  Climbing Moncton Center
12:37PM 51.2500 -60.4167 242° Southwest 390 449 35,000  Descending Moncton Center
12:38PM 51.2000 -60.5833 244° Southwest 400 460 35,100  Climbing Moncton Center
12:39PM 51.1667 -60.7333 251° West 400 460 35,100  Level Moncton Center
12:41PM 51.0667 -60.9667 236° Southwest 400 460 35,100 -60 Level Gander Center
12:42PM 51.0167 -61.1167 242° Southwest 400 460 35,000  Descending Gander Center
12:43PM 50.9667 -61.2833 245° Southwest 410 472 35,100  Climbing Gander Center
12:44PM 50.9167 -61.4333 242° Southwest 410 472 35,100  Level Gander Center
12:45PM 50.8667 -61.6000 245° Southwest 410 472 35,100 -60 Level Gander Center
12:46PM 50.8167 -61.7667 245° Southwest 410 472 35,000  Descending Gander Center
12:47PM 50.7667 -61.9167 242° Southwest 410 472 35,100 60 Climbing Gander Center
12:47PM 50.7333 -62.0167 242° Southwest 410 472 35,100 -120 Level Moncton Center
12:48PM 50.6833 -62.1833 245° Southwest 410 472 35,000  Descending Moncton Center
12:49PM 50.6333 -62.3167 239° Southwest 410 472 35,100  Climbing Moncton Center
12:50PM 50.5833 -62.4667 242° Southwest 400 460 35,000  Descending Moncton Center
12:51PM 50.5167 -62.6333 238° Southwest 410 472 35,100  Climbing Moncton Center
12:52PM 50.4667 -62.8000 245° Southwest 410 472 35,000  Descending Moncton Center
12:53PM 50.4000 -62.9500 235° Southwest 410 472 35,100  Climbing Moncton Center
12:54PM 50.3500 -63.1167 245° Southwest 410 472 35,000  Descending Moncton Center
12:55PM 50.2833 -63.2333 228° Southwest 410 472 35,100  Climbing Montreal Center
12:56PM 50.2333 -63.3833 243° Southwest 410 472 35,100  Level Montreal Center
12:57PM 50.1833 -63.5500 245° Southwest 410 472 35,100  Level Montreal Center
12:58PM 50.1333 -63.7000 243° Southwest 420 483 35,100  Level Montreal Center
12:59PM 50.0667 -63.8667 238° Southwest 420 483 35,100  Level Montreal Center
01:00PM 50.0167 -64.0167 243° Southwest 420 483 35,100  Level Montreal Center
01:01PM 49.9667 -64.2167 249° West 420 483 35,100  Level Moncton Center
01:02PM 49.9000 -64.3333 228° Southwest 420 483 35,100  Level Montreal Center
01:03PM 49.8500 -64.4833 243° Southwest 420 483 35,100  Level Montreal Center
01:04PM 49.7833 -64.6500 238° Southwest 420 483 35,100  Level Montreal Center
01:05PM 49.7167 -64.8000 236° Southwest 420 483 35,100  Level Montreal Center
01:06PM 49.6500 -64.9833 241° Southwest 420 483 35,100  Level Montreal Center
01:07PM 49.5833 -65.1500 238° Southwest 430 495 35,100  Level Moncton Center
01:08PM 49.5333 -65.3000 243° Southwest 430 495 35,100  Level Moncton Center
01:09PM 49.4667 -65.4833 241° Southwest 430 495 35,100  Level Moncton Center
01:10PM 49.4167 -65.6333 243° Southwest 430 495 35,100  Level Moncton Center
01:11PM 49.3500 -65.7833 236° Southwest 430 495 35,100 -60 Level Moncton Center
01:12PM 49.3000 -65.9333 243° Southwest 430 495 35,000  Descending Moncton Center
01:13PM 49.2333 -66.0833 236° Southwest 430 495 35,100 180 Climbing Moncton Center
01:14PM 49.1500 -66.2667 235° Southwest 430 495 35,400 480 Climbing Moncton Center
01:15PM 49.1000 -66.4167 243° Southwest 430 495 36,100 300 Climbing Moncton Center
01:16PM 49.0333 -66.5667 236° Southwest 430 495 36,000  Descending Moncton Center
01:17PM 48.9833 -66.7167 243° Southwest 430 495 36,100  Climbing Moncton Center
01:18PM 48.9167 -66.9000 241° Southwest 430 495 36,100 -60 Level Moncton Center
01:19PM 48.8500 -67.0500 236° Southwest 430 495 36,000  Descending Moncton Center
01:20PM 48.7833 -67.1667 229° Southwest 430 495 36,100  Climbing Moncton Center
01:21PM 48.7167 -67.3333 239° Southwest 430 495 36,000 -60 Descending Moncton Center
01:22PM 48.6667 -67.4833 243° Southwest 430 495 36,000  Level Moncton Center
01:23PM 48.6000 -67.6333 236° Southwest 430 495 36,100  Climbing Moncton Center
01:24PM 48.5333 -67.7833 236° Southwest 430 495 36,000  Descending Moncton Center
01:30PM 48.1860 -68.6280 236° Southwest 443 510 36,100  Climbing FlightAware
01:30PM 48.1420 -68.7300 237° Southwest 444 511 36,000  Descending FlightAware
01:31PM 48.0910 -68.8450 236° Southwest 444 511 36,100 60 Climbing FlightAware
01:32PM 48.0450 -68.9480 236° Southwest 446 513 36,100  Level FlightAware
01:32PM 47.9990 -69.0520 237° Southwest 446 513 36,100  Level FlightAware
01:33PM 47.9480 -69.1660 236° Southwest 446 513 36,100 -120 Level FlightAware
01:34PM 47.9030 -69.2680 237° Southwest 445 512 36,000 -120 Descending FlightAware
01:35PM 47.8520 -69.3810 236° Southwest 444 511 36,000 60 Level FlightAware
01:35PM 47.8060 -69.4830 236° Southwest 443 510 36,100  Climbing FlightAware
01:36PM 47.7420 -69.6180 235° Southwest 447 514 36,000 -120 Descending FlightAware
01:37PM 47.6830 -69.7250 231° Southwest 446 513 36,000 60 Level FlightAware
01:37PM 47.6370 -69.8080 231° Southwest 447 514 36,100  Climbing FlightAware
01:38PM 47.5770 -69.9140 230° Southwest 446 513 36,000 -120 Descending FlightAware
01:39PM 47.5180 -70.0190 230° Southwest 445 512 36,000  Level FlightAware
01:40PM 47.4660 -70.1120 230° Southwest 444 511 36,000 60 Level FlightAware
01:41PM 47.3950 -70.2390 230° Southwest 441 507 36,100  Climbing FlightAware
01:41PM 47.3440 -70.3330 231° Southwest 441 507 36,000 -120 Descending FlightAware
01:42PM 47.2870 -70.4370 231° Southwest 439 505 36,000 60 Level FlightAware
01:43PM 47.2360 -70.5290 231° Southwest 440 506 36,100  Climbing FlightAware
01:43PM 47.1850 -70.6220 231° Southwest 437 503 36,000  Descending FlightAware
01:44PM 47.1280 -70.7240 231° Southwest 436 502 36,100  Climbing FlightAware
01:45PM 47.0700 -70.8280 231° Southwest 434 499 36,000  Descending FlightAware
01:45PM 47.0210 -70.9160 231° Southwest 434 499 36,100  Climbing FlightAware
01:46PM 46.9700 -71.0070 231° Southwest 432 497 36,000 -120 Descending FlightAware
01:47PM 46.9190 -71.0970 230° Southwest 431 496 36,000  Level FlightAware
01:48PM 46.8630 -71.1970 231° Southwest 429 494 36,000 60 Level FlightAware
01:48PM 46.8120 -71.2860 230° Southwest 426 490 36,100  Climbing FlightAware
01:49PM 46.7640 -71.3700 230° Southwest 424 488 36,000 -120 Descending FlightAware
01:50PM 46.7060 -71.4720 230° Southwest 423 487 36,000  Level FlightAware
01:50PM 46.6500 -71.5690 230° Southwest 421 484 36,000  Level FlightAware
01:51PM 46.5990 -71.6570 230° Southwest 421 484 36,000  Level FlightAware
01:52PM 46.5470 -71.7450 229° Southwest 424 488 36,000  Level FlightAware
01:52PM 46.4930 -71.8350 229° Southwest 428 493 36,000 -540 Level FlightAware
01:53PM 46.4340 -71.9350 229° Southwest 437 503 35,300 -1,140 Descending FlightAware
01:54PM 46.3810 -72.0240 229° Southwest 440 506 34,400 -1,320 Descending FlightAware
01:55PM 46.3250 -72.1170 229° Southwest 443 510 33,500 -1,380 Descending FlightAware
01:55PM 46.2690 -72.2110 229° Southwest 441 507 32,500 -1,920 Descending FlightAware
01:56PM 46.2140 -72.3010 229° Southwest 432 497 30,900 -2,400 Descending FlightAware
01:57PM 46.1560 -72.3970 229° Southwest 423 487 29,100 -2,400 Descending FlightAware
01:57PM 46.1010 -72.4870 229° Southwest 418 481 27,400 -2,400 Descending FlightAware
01:58PM 46.0490 -72.5710 228° Southwest 413 475 25,800 -2,340 Descending FlightAware
01:59PM 45.9970 -72.6560 229° Southwest 406 467 24,200 -2,340 Descending FlightAware
01:59PM 45.9500 -72.7330 229° Southwest 399 459 22,700 -2,400 Descending FlightAware
02:00PM 45.9130 -72.7940 229° Southwest 395 455 21,500 -2,280 Descending FlightAware
02:01PM 45.8610 -72.8780 228° Southwest 389 448 19,900 -2,280 Descending FlightAware
02:01PM 45.8110 -72.9590 228° Southwest 382 440 18,300 -2,340 Descending FlightAware
02:02PM 45.7660 -73.0310 228° Southwest 380 437 16,800 -2,340 Descending FlightAware
02:03PM 45.7130 -73.1180 229° Southwest 371 427 15,000 -2,220 Descending FlightAware
02:03PM 45.6750 -73.1980 236° Southwest 360 414 13,600 -2,160 Descending FlightAware
02:04PM 45.6370 -73.2850 238° Southwest 350 403 12,000 -2,100 Descending FlightAware
02:05PM 45.6010 -73.3670 238° Southwest 342 394 10,600 -1,500 Descending FlightAware
02:05PM 45.5680 -73.4330 234° Southwest 317 365 10,000 -1,020 Descending FlightAware
02:06PM 45.5490 -73.4590 224° Southwest 308 354 9,700 -960 Descending FlightAware
02:06PM 45.5230 -73.4950 224° Southwest 294 338 9,300 -720 Descending FlightAware
02:07PM 45.4960 -73.5300 222° Southwest 276 318 9,100 -720 Descending FlightAware
02:07PM 45.4820 -73.5480 222° Southwest 271 312 8,800 -1,380 Descending FlightAware
02:07PM 45.4560 -73.5820 223° Southwest 271 312 8,100 -1,500 Descending FlightAware
02:08PM 45.4320 -73.6140 223° Southwest 268 308 7,500 -1,380 Descending FlightAware
02:08PM 45.4060 -73.6480 223° Southwest 263 303 6,900 -1,260 Descending FlightAware
02:09PM 45.3800 -73.6820 223° Southwest 258 297 6,300 -1,440 Descending FlightAware
02:09PM 45.3700 -73.6950 222° Southwest 256 295 5,900 -2,100 Descending FlightAware
02:09PM 45.3470 -73.7260 223° Southwest 253 291 5,000 -1,980 Descending FlightAware
02:10PM 45.3200 -73.7610 222° Southwest 256 295 4,000 -1,740 Descending FlightAware
02:10PM 45.2980 -73.7890 222° Southwest 255 293 3,400 -1,440 Descending FlightAware
02:11PM 45.2830 -73.8090 223° Southwest 252 290 3,000 -840 Descending FlightAware
02:11PM 45.2690 -73.8450 241° Southwest 239 275 2,800 -240 Descending FlightAware
02:12PM 45.2780 -73.8770 292° West 220 253 2,800  Level FlightAware
02:12PM 45.3000 -73.9040 319° Northwest 201 231 2,800  Level FlightAware
02:12PM 45.3120 -73.9140 330° Northwest 198 228 2,800  Level FlightAware
02:13PM 45.3330 -73.9090 10° North 198 228 2,800 -180 Level FlightAware
02:13PM 45.3550 -73.8990 18° North 199 229 2,700 -720 Descending FlightAware
02:13PM 45.3700 -73.8840 35° Northeast 197 227 2,300 -1,080 Descending FlightAware
02:14PM 45.3890 -73.8590 43° Northeast 192 221 1,800 -1,020 Descending FlightAware
02:14PM 45.4050 -73.8380 43° Northeast 183 211 1,400 -1,020 Descending FlightAware
02:15PM 45.4230 -73.8150 42° Northeast 163 188 900 -900 Descending FlightAware
02:15PM 45.4390 -73.7940 43° Northeast 148 170 500 -780 Descending FlightAware
02:16PM 45.4500 -73.7790 44° Northeast 137 158 200 -720 Descending FlightAware
02:17PM 45.4710 -73.7530 41° Northeast 98 113 -300 Descending FlightAware
02:17PM 45.4760 -73.7460 44° Northeast 40 46  Level FlightAware
02:17PM 45.4780 -73.7420 55° Northeast 22 25  Level FlightAware
02:18PM 45.4780 -73.7400 90° East 9 10  Level FlightAware